Terminal Aerodrome Forecast
Issued by NWS

Home | Current Version | Previous Version | Text Only | Print | Product List | Glossary Off
Versions: 1 2 3 4 5 6 7 8 9 10 11 12 13 14 15 16 17 18 19

448
FTUS43 KOAX 221138
TAFCDR
TAF
KCDR 221138Z 2212/2312 VRB05KT P6SM BKN150
     FM221800 16016G25KT P6SM SCT120
     FM230200 18015KT P6SM SCT080=

USA.gov is the U.S. government's official web portal to all federal, state and local government web resources and services.